Paint Rock, North Carolina
Current Conditions -  °F | °C
As of 11:54 PM on Sunday 21 Dec 2014 (Local Time) from KAVL Reporting Station
Overcast Overcast  
Wind Chill: 35°   Ceiling: 900
Heat Index: 40°   Visibility: 8mi
Dew Point: 37°   Wind: 7mph
Humidity: 89%   Direction: 170°S
Pressure: 30.15"   Gusts: NA
Location:  35.8037°N, 82.868°W
Report Text: KAVL 220454Z AUTO 17006KT 8SM BKN009 OVC014 04/03 A3015 RMK AO2 SLP211 T00440028 400890033
Loading
Personal Weather Stations






























Interactive Weather Map New forecast layout! Learn more

10-Day Weather Forecast

Advertisements
Track Severe Weather on mobile